createdAt,value
2019-04-01T00:02:49.297Z,11.60
2019-04-01T00:07:52.575Z,13.73
2019-04-01T00:12:55.883Z,10.70
2019-04-01T00:17:59.181Z,9.73
2019-04-01T00:23:02.726Z,11.23
2019-04-01T00:28:06.126Z,10.97
2019-04-01T00:33:09.419Z,10.80
2019-04-01T00:38:12.725Z,9.93
2019-04-01T00:43:17.647Z,9.53
2019-04-01T00:48:21.035Z,9.07
2019-04-01T00:53:24.367Z,9.40
2019-04-01T00:58:30.564Z,9.47
2019-04-01T01:03:33.578Z,9.50
2019-04-01T01:08:36.892Z,9.47
2019-04-01T01:13:40.372Z,10.77
2019-04-01T01:18:43.669Z,7.70
2019-04-01T01:23:46.973Z,10.03
2019-04-01T01:28:50.361Z,7.60
2019-04-01T01:33:53.718Z,8.57
2019-04-01T01:38:57.015Z,9.43
2019-04-01T01:44:00.689Z,6.77
2019-04-01T01:49:03.986Z,7.57
2019-04-01T01:54:07.354Z,7.03
2019-04-01T01:59:10.650Z,7.33
2019-04-01T02:04:14.056Z,6.63
2019-04-01T02:09:17.345Z,6.23
2019-04-01T02:14:20.640Z,6.73
2019-04-01T02:19:23.952Z,7.80
2019-04-01T02:24:27.241Z,6.57
2019-04-01T02:29:30.538Z,5.80
2019-04-01T02:34:33.877Z,6.77
2019-04-01T02:39:37.178Z,4.47
2019-04-01T02:44:40.551Z,5.13
2019-04-01T02:49:43.845Z,6.20
2019-04-01T02:54:47.152Z,5.90
2019-04-01T02:59:50.450Z,5.30
2019-04-01T03:04:53.826Z,6.53
2019-04-01T03:09:57.210Z,5.23
2019-04-01T03:15:00.564Z,6.00
2019-04-01T03:20:05.105Z,6.23
2019-04-01T03:25:08.539Z,5.87
2019-04-01T03:30:11.870Z,6.03
2019-04-01T03:35:15.147Z,4.83
2019-04-01T03:40:18.443Z,4.47
2019-04-01T03:45:21.737Z,6.27
2019-04-01T03:50:25.033Z,5.30
2019-04-01T03:55:28.322Z,6.70
2019-04-01T04:00:31.618Z,5.47
2019-04-01T04:05:34.926Z,5.10
2019-04-01T04:10:38.287Z,4.77
2019-04-01T04:15:41.651Z,4.57
2019-04-01T04:20:45.002Z,5.30
2019-04-01T04:25:49.428Z,5.53
2019-04-01T04:30:52.869Z,4.37
2019-04-01T04:35:56.176Z,4.93
2019-04-01T04:40:59.456Z,4.73
2019-04-01T04:46:02.754Z,4.47
2019-04-01T04:51:06.048Z,4.80
2019-04-01T04:56:09.322Z,4.13
2019-04-01T05:01:13.129Z,4.70
2019-04-01T05:06:16.394Z,4.87
2019-04-01T05:11:19.691Z,5.57
2019-04-01T05:16:23.069Z,5.43
2019-04-01T05:21:26.741Z,5.00
2019-04-01T05:26:30.410Z,3.93
2019-04-01T05:31:34.749Z,5.53
2019-04-01T05:36:38.117Z,4.77
2019-04-01T05:41:41.464Z,4.87
2019-04-01T05:46:44.763Z,4.47
2019-04-01T05:51:48.130Z,4.93
2019-04-01T05:56:51.611Z,5.27
2019-04-01T06:01:54.911Z,4.93
2019-04-01T06:06:58.250Z,4.20
2019-04-01T06:12:01.562Z,4.43
2019-04-01T06:17:04.855Z,4.27
2019-04-01T06:22:08.223Z,4.00
2019-04-01T06:27:12.043Z,3.77
2019-04-01T06:32:15.888Z,5.23
2019-04-01T06:37:19.178Z,4.12
2019-04-01T06:42:22.485Z,5.37
2019-04-01T06:47:25.779Z,4.83
2019-04-01T06:52:29.083Z,5.27
2019-04-01T06:57:32.376Z,4.73
2019-04-01T07:02:35.672Z,5.63
2019-04-01T07:07:38.971Z,5.43
2019-04-01T07:12:42.548Z,5.47
2019-04-01T07:17:45.847Z,5.70
2019-04-01T07:22:49.271Z,5.67
2019-04-01T07:27:52.579Z,6.67
2019-04-01T07:32:55.879Z,5.13
2019-04-01T07:37:59.175Z,4.93
2019-04-01T07:43:02.848Z,12.60
2019-04-01T07:48:06.168Z,6.27
2019-04-01T07:53:09.641Z,5.63
2019-04-01T07:58:12.944Z,5.77
2019-04-01T08:03:16.306Z,4.53
2019-04-01T08:08:19.681Z,5.70
2019-04-01T08:13:22.983Z,5.50
2019-04-01T08:18:26.297Z,6.28
2019-04-01T08:23:29.676Z,4.93
2019-04-01T08:28:33.048Z,5.47
2019-04-01T08:33:36.344Z,6.17
2019-04-01T08:38:39.769Z,6.47
2019-04-01T08:43:44.019Z,6.93
2019-04-01T08:48:47.407Z,6.13
2019-04-01T08:53:50.899Z,6.87
2019-04-01T08:58:54.463Z,8.30
2019-04-01T09:03:57.769Z,8.37
2019-04-01T09:09:01.643Z,7.73
2019-04-01T09:14:05.018Z,10.53
2019-04-01T09:19:08.331Z,8.90
2019-04-01T09:24:11.624Z,8.20
2019-04-01T09:29:15.005Z,8.63
2019-04-01T09:34:18.306Z,8.03
2019-04-01T09:39:21.605Z,8.60
2019-04-01T09:44:36.086Z,8.30
2019-04-01T09:49:29.940Z,7.90
2019-04-01T09:54:33.245Z,8.00
2019-04-01T09:59:36.669Z,8.57
2019-04-01T10:04:39.930Z,8.83
2019-04-01T10:09:43.295Z,9.40
2019-04-01T10:14:46.633Z,8.50
2019-04-01T10:19:49.892Z,8.67
2019-04-01T10:24:53.206Z,8.50
2019-04-01T10:29:56.511Z,9.47
2019-04-01T10:34:59.825Z,8.27
2019-04-01T10:40:03.699Z,8.97
2019-04-01T10:45:08.620Z,10.30
2019-04-01T10:50:13.253Z,10.40
2019-04-01T10:55:16.551Z,9.50
2019-04-01T11:00:20.046Z,10.20
2019-04-01T11:05:23.357Z,9.37
2019-04-01T11:10:26.697Z,10.83
2019-04-01T11:15:30.009Z,10.50
2019-04-01T11:20:33.409Z,10.30
2019-04-01T11:25:36.717Z,9.87
2019-04-01T11:30:40.027Z,9.03
2019-04-01T11:35:43.326Z,10.20
2019-04-01T11:40:46.679Z,10.90
2019-04-01T11:45:50.070Z,11.07
2019-04-01T11:50:53.988Z,11.33
2019-04-01T11:55:57.557Z,11.13
2019-04-01T12:01:00.863Z,9.50
2019-04-01T12:06:04.236Z,9.13
2019-04-01T12:11:07.540Z,9.93
2019-04-01T12:16:10.911Z,8.63
2019-04-01T12:21:14.220Z,10.17
2019-04-01T12:26:17.717Z,9.63
2019-04-01T12:31:21.730Z,10.63
2019-04-01T12:36:25.392Z,9.47
2019-04-01T12:41:28.787Z,9.23
2019-04-01T12:46:32.088Z,9.83
2019-04-01T12:51:35.465Z,10.40
2019-04-01T12:56:38.781Z,10.10
2019-04-01T13:01:42.087Z,9.63
2019-04-01T13:06:45.393Z,9.60
2019-04-01T13:11:49.087Z,8.90
2019-04-01T13:16:52.735Z,9.17
2019-04-01T13:21:56.249Z,8.13
2019-04-01T13:27:00.351Z,8.47
2019-04-01T13:32:03.918Z,8.87
2019-04-01T13:37:07.285Z,9.40
2019-04-01T13:42:10.598Z,8.83
2019-04-01T13:47:13.880Z,8.73
2019-04-01T13:52:17.193Z,8.13
2019-04-01T13:57:20.692Z,8.40
2019-04-01T14:02:23.996Z,8.63
2019-04-01T14:07:27.300Z,8.27
2019-04-01T14:12:30.704Z,7.87
2019-04-01T14:17:34.001Z,7.90
2019-04-01T14:22:37.340Z,8.40
2019-04-01T14:27:40.640Z,8.13
2019-04-01T14:32:43.950Z,7.87
2019-04-01T14:37:47.388Z,8.10
2019-04-01T14:42:51.629Z,8.17
2019-04-01T14:47:57.553Z,8.70
2019-04-01T14:52:59.967Z,8.77
2019-04-01T14:58:03.281Z,8.10
2019-04-01T15:03:06.585Z,8.10
2019-04-01T15:08:09.979Z,8.23
2019-04-01T15:13:13.292Z,7.00
2019-04-01T15:18:16.779Z,7.93
2019-04-01T15:23:20.108Z,8.57
2019-04-01T15:28:25.487Z,8.37
2019-04-01T15:33:28.807Z,8.40
2019-04-01T15:38:32.130Z,7.77
2019-04-01T15:43:35.460Z,7.73
2019-04-01T15:48:38.794Z,8.27
2019-04-01T15:53:42.094Z,9.00
2019-04-01T15:58:45.418Z,7.90
2019-04-01T16:03:48.731Z,7.80
2019-04-01T16:08:52.063Z,7.27
2019-04-01T16:13:55.382Z,7.67
2019-04-01T16:18:59.977Z,8.07
2019-04-01T16:24:03.465Z,7.10
2019-04-01T16:29:06.802Z,6.67
2019-04-01T16:34:10.111Z,7.93
2019-04-01T16:39:13.422Z,7.20
2019-04-01T16:44:16.805Z,7.63
2019-04-01T16:49:20.152Z,6.37
2019-04-01T16:54:23.444Z,7.23
2019-04-01T16:59:28.049Z,6.60
2019-04-01T17:04:32.765Z,7.37
2019-04-01T17:09:36.288Z,6.37
2019-04-01T17:14:39.614Z,6.60
2019-04-01T17:19:42.939Z,6.43
2019-04-01T17:24:46.332Z,6.27
2019-04-01T17:29:49.650Z,5.60
2019-04-01T17:34:52.974Z,6.83
2019-04-01T17:39:56.324Z,6.77
2019-04-01T17:45:02.815Z,5.60
2019-04-01T17:50:07.281Z,6.00
2019-04-01T17:55:10.615Z,5.60
2019-04-01T18:00:17.443Z,5.93
2019-04-01T18:05:22.366Z,7.03
2019-04-01T18:10:25.701Z,6.83
2019-04-01T18:15:29.032Z,7.10
2019-04-01T18:20:33.473Z,6.07
2019-04-01T18:25:37.496Z,6.07
2019-04-01T18:30:40.816Z,4.67
2019-04-01T18:35:44.947Z,4.83
2019-04-01T18:40:48.444Z,4.33
2019-04-01T18:45:51.805Z,5.43
2019-04-01T18:50:55.195Z,5.77
2019-04-01T18:56:00.478Z,5.53
2019-04-01T19:01:04.540Z,6.00
2019-04-01T19:06:07.875Z,5.40
2019-04-01T19:11:11.329Z,5.33
2019-04-01T19:16:16.638Z,4.77
2019-04-01T19:21:19.754Z,4.57
2019-04-01T19:26:24.208Z,5.67
2019-04-01T19:31:27.736Z,5.27
2019-04-01T19:36:31.051Z,4.87
2019-04-01T19:41:34.376Z,4.70
2019-04-01T19:46:38.129Z,4.40
2019-04-01T19:51:41.704Z,6.17
2019-04-01T19:56:45.099Z,5.83
2019-04-01T20:01:49.366Z,4.60
2019-04-01T20:06:52.677Z,5.30
2019-04-01T20:11:58.365Z,4.47
2019-04-01T20:17:02.276Z,4.40
2019-04-01T20:22:05.909Z,4.83
2019-04-01T20:27:10.260Z,5.27
2019-04-01T20:32:17.495Z,4.13
2019-04-01T20:37:20.580Z,4.10
2019-04-01T20:42:24.038Z,3.60
2019-04-01T20:47:27.798Z,3.93
2019-04-01T20:52:33.150Z,3.90
2019-04-01T20:57:39.535Z,4.10
2019-04-01T21:02:45.951Z,3.50
2019-04-01T21:07:50.690Z,3.07
2019-04-01T21:12:55.891Z,3.83
2019-04-01T21:17:59.187Z,3.67
2019-04-01T21:23:02.748Z,3.07
2019-04-01T21:28:06.132Z,4.57
2019-04-01T21:33:09.586Z,5.50
2019-04-01T21:38:12.887Z,5.13
2019-04-01T21:43:17.760Z,4.10
2019-04-01T21:48:21.123Z,5.70
2019-04-01T21:53:24.438Z,4.53
2019-04-01T21:58:27.736Z,6.17
2019-04-01T22:03:31.030Z,7.27
2019-04-01T22:08:35.215Z,6.33
2019-04-01T22:13:39.375Z,5.20
2019-04-01T22:18:43.018Z,3.37
2019-04-01T22:23:46.640Z,3.30
2019-04-01T22:28:50.195Z,3.17
2019-04-01T22:33:54.433Z,3.53
2019-04-01T22:38:57.724Z,3.47
2019-04-01T22:44:01.010Z,3.43
2019-04-01T22:49:04.577Z,2.40
2019-04-01T22:54:07.874Z,3.33
2019-04-01T22:59:11.179Z,2.50
2019-04-01T23:04:14.449Z,3.00
2019-04-01T23:09:17.753Z,1.90
2019-04-01T23:14:21.028Z,3.20
2019-04-01T23:19:24.333Z,2.75
2019-04-01T23:24:28.262Z,3.50
2019-04-01T23:29:31.923Z,3.10
2019-04-01T23:34:35.220Z,2.73
2019-04-01T23:39:38.531Z,3.60
2019-04-01T23:44:41.827Z,3.27
2019-04-01T23:49:45.123Z,3.40
2019-04-01T23:54:48.417Z,3.43
2019-04-01T23:59:51.713Z,3.03
